Time;durP1;ratioP1;P1;durP2;ratioP2;P2;SDS_P1;SDS_P2;PMS_P1;PMS_P2;Temp;Humidity;BMP_temperature;BMP_pressure;BME280_temperature;BME280_humidity;BME280_pressure;Samples;Min_cycle;Max_cycle;Signal;HPM_P1;HPM_P2
2020/12/07 00:00:43;;;;;;;40.47;21.17;;;5.10;93.50;;;;;;5077611;28;20035;-81
2020/12/07 00:03:10;;;;;;;38.83;21.33;;;5.10;93.60;;;;;;5096526;28;20511;-80
2020/12/07 00:05:36;;;;;;;40.53;21.50;;;5.10;93.50;;;;;;5096068;28;20032;-81
2020/12/07 00:08:03;;;;;;;38.30;20.17;;;5.00;93.80;;;;;;5096094;28;20373;-81
2020/12/07 00:10:29;;;;;;;39.00;20.17;;;5.00;94.00;;;;;;5094981;28;20054;-80
2020/12/07 00:12:55;;;;;;;34.60;18.43;;;5.00;94.00;;;;;;5095602;28;20081;-82
2020/12/07 00:15:21;;;;;;;38.80;20.47;;;5.00;93.90;;;;;;5096185;28;20480;-81
2020/12/07 00:17:46;;;;;;;39.03;20.37;;;4.90;93.90;;;;;;5096331;28;20089;-80
2020/12/07 00:20:12;;;;;;;37.33;19.93;;;4.90;94.20;;;;;;5095575;28;20346;-81
2020/12/07 00:22:38;;;;;;;41.47;20.63;;;4.80;94.20;;;;;;5095891;28;20035;-81
2020/12/07 00:25:05;;;;;;;34.33;19.20;;;4.80;94.30;;;;;;5095835;28;20111;-81
2020/12/07 00:27:33;;;;;;;34.23;19.60;;;4.90;94.30;;;;;;5096191;28;20531;-81
2020/12/07 00:30:00;;;;;;;35.90;20.30;;;4.90;94.10;;;;;;5095403;28;20046;-81
2020/12/07 00:32:26;;;;;;;34.13;18.60;;;4.90;94.20;;;;;;5095599;28;20032;-84
2020/12/07 00:34:53;;;;;;;34.07;19.97;;;4.90;94.10;;;;;;5095589;28;20032;-81
2020/12/07 00:37:20;;;;;;;32.23;18.13;;;5.00;94.00;;;;;;5095504;28;20024;-81
2020/12/07 00:39:46;;;;;;;28.10;17.13;;;4.90;93.70;;;;;;5094824;28;20063;-81
2020/12/07 00:42:12;;;;;;;30.93;17.30;;;4.90;93.80;;;;;;5095369;28;20035;-83
2020/12/07 00:44:39;;;;;;;29.80;16.90;;;4.90;93.70;;;;;;5095918;28;20374;-82
2020/12/07 00:47:06;;;;;;;30.03;17.60;;;4.90;93.80;;;;;;5077235;28;20097;-81
2020/12/07 00:49:33;;;;;;;29.57;17.00;;;4.80;93.80;;;;;;5095266;28;20023;-81
2020/12/07 00:51:59;;;;;;;28.90;17.40;;;4.80;93.70;;;;;;5094991;28;20056;-80
2020/12/07 00:54:25;;;;;;;33.07;18.47;;;4.80;93.90;;;;;;5095622;28;20023;-81
2020/12/07 00:56:58;;;;;;;32.50;17.77;;;4.80;93.80;;;;;;5095428;28;20024;-84
2020/12/07 00:59:24;;;;;;;31.97;18.13;;;4.80;93.70;;;;;;5094636;28;20024;-80
2020/12/07 01:01:51;;;;;;;30.63;18.97;;;4.80;93.80;;;;;;5095241;28;20051;-83
2020/12/07 01:04:17;;;;;;;31.20;18.40;;;4.70;93.70;;;;;;5095027;28;20024;-82
2020/12/07 01:06:45;;;;;;;30.13;18.07;;;4.70;93.90;;;;;;5094820;28;20035;-83
2020/12/07 01:09:15;;;;;;;30.30;17.67;;;4.70;93.90;;;;;;5093995;28;20060;-84
2020/12/07 01:11:44;;;;;;;33.97;19.00;;;4.70;93.90;;;;;;5094546;28;20016;-83
2020/12/07 01:14:13;;;;;;;33.22;18.83;;;4.70;93.70;;;;;;5094703;28;20028;-82
2020/12/07 01:16:40;;;;;;;31.38;18.17;;;4.70;93.70;;;;;;5094938;28;20203;-82
2020/12/07 01:19:06;;;;;;;36.13;20.50;;;4.60;93.90;;;;;;5093900;28;20435;-83
2020/12/07 01:21:33;;;;;;;33.67;19.00;;;4.60;93.80;;;;;;5094413;28;20087;-82
2020/12/07 01:23:59;;;;;;;32.70;18.50;;;4.60;93.80;;;;;;5094446;28;20032;-83
2020/12/07 01:26:25;;;;;;;31.83;18.53;;;4.60;93.80;;;;;;5094291;28;20028;-83
2020/12/07 01:28:50;;;;;;;32.93;19.20;;;4.60;93.90;;;;;;5094210;28;20392;-83
2020/12/07 01:31:17;;;;;;;34.57;19.77;;;4.60;93.90;;;;;;5093680;28;20393;-83
2020/12/07 01:33:44;;;;;;;35.73;19.27;;;4.60;94.00;;;;;;5094387;28;20366;-82
2020/12/07 01:36:09;;;;;;;33.67;18.33;;;4.60;94.10;;;;;;5094370;28;20047;-83
2020/12/07 01:38:35;;;;;;;33.70;18.70;;;4.60;94.00;;;;;;5094509;28;20472;-83
2020/12/07 01:41:00;;;;;;;32.33;18.90;;;4.60;93.90;;;;;;5093732;28;20028;-83
2020/12/07 01:43:26;;;;;;;33.27;19.30;;;4.70;94.00;;;;;;5094020;28;20121;-82
2020/12/07 01:45:51;;;;;;;36.97;20.93;;;4.60;93.90;;;;;;5094378;28;20033;-83
2020/12/07 01:48:17;;;;;;;35.10;19.83;;;4.60;94.20;;;;;;5094691;28;20038;-83
2020/12/07 01:50:43;;;;;;;33.60;18.70;;;4.70;93.90;;;;;;5082268;28;20081;-83
2020/12/07 01:53:10;;;;;;;32.57;18.87;;;4.70;93.70;;;;;;5101002;28;20028;-83
2020/12/07 01:55:37;;;;;;;34.97;18.57;;;4.60;94.00;;;;;;5101266;28;20024;-82
2020/12/07 01:58:03;;;;;;;30.97;18.53;;;4.70;93.80;;;;;;5083031;28;20375;-83
2020/12/07 02:00:29;;;;;;;31.33;18.07;;;4.70;93.70;;;;;;5100455;28;20107;-83
2020/12/07 02:02:54;;;;;;;30.43;17.80;;;4.70;93.60;;;;;;5101288;28;20031;-83
2020/12/07 02:05:22;;;;;;;31.80;18.90;;;4.70;93.60;;;;;;5100863;28;20370;-82
2020/12/07 02:07:47;;;;;;;29.73;17.67;;;4.70;93.40;;;;;;5100649;28;20040;-82
2020/12/07 02:10:13;;;;;;;29.47;18.37;;;4.50;93.60;;;;;;5100264;28;20024;-83
2020/12/07 02:12:38;;;;;;;29.17;16.80;;;4.60;93.80;;;;;;5101055;28;20392;-83
2020/12/07 02:15:04;;;;;;;31.57;17.50;;;4.60;93.60;;;;;;5100540;28;20020;-83
2020/12/07 02:17:30;;;;;;;32.97;18.40;;;4.50;93.90;;;;;;5101012;28;20119;-83
2020/12/07 02:19:55;;;;;;;30.27;18.37;;;4.50;93.90;;;;;;5100367;28;20059;-83
2020/12/07 02:22:21;;;;;;;29.87;17.50;;;4.50;94.30;;;;;;5100579;28;20036;-82
2020/12/07 02:24:46;;;;;;;31.03;18.53;;;4.50;94.00;;;;;;5082795;28;20080;-82
2020/12/07 02:27:12;;;;;;;32.23;18.57;;;4.50;93.80;;;;;;5100668;28;20036;-83
2020/12/07 02:29:37;;;;;;;32.20;18.40;;;4.50;93.80;;;;;;5100251;28;20464;-82
2020/12/07 02:32:16;;;;;;;31.73;18.77;;;4.50;93.80;;;;;;5101073;28;20035;-83
2020/12/07 02:34:43;;;;;;;33.08;18.55;;;4.50;93.80;;;;;;5101167;28;20016;-83
2020/12/07 02:37:09;;;;;;;30.63;18.20;;;4.50;93.80;;;;;;5100347;28;20515;-82
2020/12/07 02:39:35;;;;;;;32.50;18.37;;;4.50;93.90;;;;;;5100001;28;20400;-83
2020/12/07 02:42:04;;;;;;;31.83;19.33;;;4.50;93.70;;;;;;5100760;28;20027;-83
2020/12/07 02:44:30;;;;;;;32.97;19.47;;;4.50;94.20;;;;;;5100513;28;20030;-83
2020/12/07 02:46:59;;;;;;;35.93;20.13;;;4.50;93.90;;;;;;5081918;28;20024;-83
2020/12/07 02:49:27;;;;;;;35.95;19.90;;;4.50;94.00;;;;;;5099744;28;20023;-83
2020/12/07 02:51:52;;;;;;;37.20;20.50;;;4.50;94.00;;;;;;5100187;28;20025;-83
2020/12/07 02:54:18;;;;;;;36.87;20.53;;;4.50;94.10;;;;;;5100405;28;20069;-82
2020/12/07 02:56:44;;;;;;;36.60;20.67;;;4.50;94.00;;;;;;5100700;28;20054;-83
2020/12/07 02:59:10;;;;;;;35.90;19.80;;;4.50;94.00;;;;;;5099886;28;20028;-82
2020/12/07 03:01:36;;;;;;;36.10;20.17;;;4.50;94.00;;;;;;5096765;28;20020;-82
2020/12/07 03:04:01;;;;;;;36.90;19.57;;;4.60;94.00;;;;;;5096846;28;20535;-83
2020/12/07 03:06:27;;;;;;;32.77;19.57;;;4.60;93.80;;;;;;5096021;28;20052;-82
2020/12/07 03:08:54;;;;;;;36.67;20.50;;;4.60;93.70;;;;;;5096466;28;20087;-83
2020/12/07 03:11:21;;;;;;;38.30;21.40;;;4.60;93.80;;;;;;5097592;28;20023;-82
2020/12/07 03:13:46;;;;;;;35.63;20.17;;;4.60;94.20;;;;;;5096739;28;20020;-83
2020/12/07 03:16:12;;;;;;;34.37;19.97;;;4.60;93.90;;;;;;5097094;28;20024;-83
2020/12/07 03:18:38;;;;;;;35.10;20.43;;;4.60;93.60;;;;;;5079071;28;20030;-83
2020/12/07 03:21:03;;;;;;;36.00;20.40;;;4.60;93.70;;;;;;5096519;28;20077;-83
2020/12/07 03:23:29;;;;;;;33.83;19.90;;;4.60;93.70;;;;;;5097228;28;20070;-82
2020/12/07 03:25:54;;;;;;;32.20;19.00;;;4.70;93.70;;;;;;5096768;28;20028;-83
2020/12/07 03:28:20;;;;;;;34.90;19.63;;;4.60;93.70;;;;;;5096849;28;20534;-82
2020/12/07 03:30:45;;;;;;;33.73;19.77;;;4.60;93.50;;;;;;5096674;28;20099;-83
2020/12/07 03:33:11;;;;;;;38.60;21.33;;;4.60;93.60;;;;;;5078752;28;20089;-82
2020/12/07 03:35:37;;;;;;;32.47;18.87;;;4.60;93.80;;;;;;5096726;28;20027;-82
2020/12/07 03:38:02;;;;;;;34.77;20.20;;;4.70;93.60;;;;;;5096612;28;20035;-83
2020/12/07 03:40:31;;;;;;;32.50;19.10;;;4.70;93.40;;;;;;5095711;28;20102;-82
2020/12/07 03:42:57;;;;;;;33.33;19.33;;;4.70;93.20;;;;;;5096512;28;20024;-83
2020/12/07 03:45:22;;;;;;;32.23;18.80;;;4.60;93.30;;;;;;5096303;28;20322;-83
2020/12/07 03:47:48;;;;;;;33.10;19.67;;;4.60;93.40;;;;;;5096289;28;20020;-83
2020/12/07 03:50:13;;;;;;;32.87;19.57;;;4.70;93.40;;;;;;5095736;28;20028;-83
2020/12/07 03:52:39;;;;;;;38.03;20.53;;;4.70;93.30;;;;;;5096275;28;20024;-83
2020/12/07 03:55:04;;;;;;;34.77;20.20;;;4.60;93.40;;;;;;5096239;28;20376;-83
2020/12/07 03:57:30;;;;;;;34.97;20.80;;;4.60;93.50;;;;;;5095966;28;20028;-82
2020/12/07 03:59:55;;;;;;;35.67;20.33;;;4.60;93.50;;;;;;5095706;28;20031;-82
2020/12/07 04:02:21;;;;;;;38.93;21.50;;;4.50;93.50;;;;;;5095988;28;20349;-82
2020/12/07 04:04:54;;;;;;;36.83;20.73;;;4.50;93.50;;;;;;5096140;28;20035;-82
2020/12/07 04:07:20;;;;;;;37.80;21.57;;;4.60;93.70;;;;;;5096207;28;20023;-82
2020/12/07 04:09:45;;;;;;;37.30;20.90;;;4.60;93.50;;;;;;5077081;28;20024;-82
2020/12/07 04:12:11;;;;;;;39.13;22.10;;;4.60;93.50;;;;;;5095643;28;20532;-82
2020/12/07 04:14:36;;;;;;;37.53;21.63;;;4.60;93.40;;;;;;5095960;28;20020;-82
2020/12/07 04:17:02;;;;;;;35.83;21.10;;;4.60;93.40;;;;;;5095699;28;20024;-83
2020/12/07 04:19:28;;;;;;;36.63;20.40;;;4.60;93.20;;;;;;5095011;28;20077;-83
2020/12/07 04:21:53;;;;;;;35.70;21.10;;;4.60;93.30;;;;;;5095830;28;20028;-83
2020/12/07 04:24:19;;;;;;;37.97;21.87;;;4.60;93.20;;;;;;5095387;28;20027;-82
2020/12/07 04:26:44;;;;;;;35.70;21.53;;;4.60;93.30;;;;;;5095328;28;20030;-83
2020/12/07 04:29:10;;;;;;;39.80;21.63;;;4.60;93.00;;;;;;5094801;28;20431;-82
2020/12/07 04:31:35;;;;;;;37.00;21.60;;;4.60;93.20;;;;;;5095662;28;20032;-82
2020/12/07 04:34:01;;;;;;;38.90;21.33;;;4.60;93.20;;;;;;5095386;28;20469;-83
2020/12/07 04:36:27;;;;;;;37.60;22.07;;;4.60;93.10;;;;;;5095143;28;20024;-83
2020/12/07 04:38:52;;;;;;;38.50;22.23;;;4.60;93.10;;;;;;5094770;28;20075;-83
2020/12/07 04:41:18;;;;;;;40.33;23.23;;;4.60;93.10;;;;;;5095512;28;20051;-82
2020/12/07 04:43:44;;;;;;;42.17;23.03;;;4.60;92.90;;;;;;5095869;28;20009;-83
2020/12/07 04:46:10;;;;;;;43.03;24.37;;;4.60;92.90;;;;;;5095513;28;20170;-82
2020/12/07 04:48:39;;;;;;;41.13;24.10;;;4.60;93.00;;;;;;5095302;28;20028;-83
2020/12/07 04:51:05;;;;;;;43.80;25.00;;;4.60;92.90;;;;;;5094993;28;20016;-83
2020/12/07 04:53:32;;;;;;;44.77;24.90;;;4.60;92.90;;;;;;5095246;28;20095;-83
2020/12/07 04:56:01;;;;;;;44.47;26.03;;;4.60;93.20;;;;;;5095005;28;20012;-82
2020/12/07 04:58:27;;;;;;;43.47;25.90;;;4.50;93.00;;;;;;5076839;28;20034;-83
2020/12/07 05:00:52;;;;;;;48.47;26.87;;;4.50;93.20;;;;;;5094967;28;20107;-83
2020/12/07 05:03:18;;;;;;;42.53;24.97;;;4.50;93.20;;;;;;5094851;28;20046;-82
2020/12/07 05:05:44;;;;;;;43.00;25.63;;;4.50;93.20;;;;;;5076655;28;20020;-83
2020/12/07 05:08:09;;;;;;;44.70;26.00;;;4.50;93.20;;;;;;5094967;28;20032;-82
2020/12/07 05:10:42;;;;;;;44.13;25.70;;;4.50;93.10;;;;;;5094135;28;20072;-83
2020/12/07 05:15:41;;;;;;;45.90;25.93;;;4.60;93.10;;;;;;5094857;28;20096;-82
2020/12/07 05:18:07;;;;;;;47.07;27.70;;;4.60;93.00;;;;;;5094965;28;20111;-82
2020/12/07 05:20:32;;;;;;;44.03;26.63;;;4.60;93.20;;;;;;5076069;28;20055;-83
2020/12/07 05:23:02;;;;;;;44.20;25.97;;;4.50;93.30;;;;;;5094452;28;20481;-82
2020/12/07 05:25:28;;;;;;;45.28;26.90;;;4.70;93.10;;;;;;5094529;28;20023;-82
2020/12/07 05:27:57;;;;;;;41.73;24.60;;;4.70;93.10;;;;;;5076121;28;20391;-83
2020/12/07 05:30:29;;;;;;;43.88;25.98;;;4.70;92.90;;;;;;5076002;28;20028;-83
2020/12/07 05:32:54;;;;;;;45.17;26.30;;;4.70;92.90;;;;;;5094680;22;20124;-85
2020/12/07 05:35:20;;;;;;;42.10;25.03;;;4.70;92.80;;;;;;5052668;28;20033;-86
2020/12/07 05:37:46;;;;;;;41.33;25.47;;;4.70;92.70;;;;;;5051058;28;20060;-85
2020/12/07 05:40:15;;;;;;;41.70;24.93;;;4.60;92.80;;;;;;5052426;28;20033;-85
2020/12/07 05:42:41;;;;;;;42.47;25.88;;;4.60;92.80;;;;;;5051074;28;20028;-86
2020/12/07 05:45:09;;;;;;;46.83;26.83;;;4.60;92.70;;;;;;5051291;28;20393;-85
2020/12/07 05:47:40;;;;;;;47.60;27.30;;;4.70;92.80;;;;;;5053267;28;20025;-85
2020/12/07 05:50:08;;;;;;;48.93;27.97;;;4.70;92.70;;;;;;5051756;28;20025;-85
2020/12/07 05:52:41;;;;;;;48.63;29.27;;;4.60;92.90;;;;;;5054837;28;20025;-85
2020/12/07 05:55:09;;;;;;;48.60;28.77;;;4.60;92.60;;;;;;5052734;28;20025;-85
2020/12/07 05:57:50;;;;;;;53.87;31.20;;;4.60;93.00;;;;;;5052639;28;20091;-85
2020/12/07 06:00:22;;;;;;;56.10;31.73;;;4.60;93.00;;;;;;5054120;28;20117;-85
2020/12/07 06:02:54;;;;;;;56.40;30.87;;;4.60;92.80;;;;;;5052452;28;20083;-85
2020/12/07 06:05:21;;;;;;;52.27;28.63;;;4.60;92.70;;;;;;5051258;28;20121;-85
2020/12/07 06:08:09;;;;;;;49.97;28.10;;;4.50;92.80;;;;;;5051066;28;20148;-85
2020/12/07 06:10:43;;;;;;;53.53;30.03;;;4.50;92.80;;;;;;5050961;28;20025;-87
2020/12/07 06:13:14;;;;;;;51.93;28.80;;;4.60;92.80;;;;;;5051023;28;20024;-88
2020/12/07 06:15:44;;;;;;;49.63;28.13;;;4.60;92.60;;;;;;5051299;28;20025;-85
2020/12/07 06:18:31;;;;;;;52.50;29.53;;;4.60;92.70;;;;;;5050846;28;20036;-85
2020/12/07 06:21:19;;;;;;;52.73;29.80;;;4.60;92.80;;;;;;5052681;28;20025;-87
2020/12/07 06:23:46;;;;;;;51.27;28.57;;;4.60;92.70;;;;;;5051503;28;20067;-85
2020/12/07 06:26:14;;;;;;;50.90;29.40;;;4.60;92.80;;;;;;5050881;28;20052;-86
2020/12/07 06:28:42;;;;;;;46.83;28.23;;;4.60;92.40;;;;;;5051875;28;20021;-86
2020/12/07 06:31:15;;;;;;;51.00;28.97;;;4.60;92.40;;;;;;5050577;28;20474;-86
2020/12/07 06:33:44;;;;;;;50.40;29.00;;;4.60;92.40;;;;;;5050658;28;20039;-86
2020/12/07 06:36:28;;;;;;;52.17;29.80;;;4.60;92.40;;;;;;5051997;28;20082;-86
2020/12/07 06:38:58;;;;;;;49.87;28.97;;;4.60;92.50;;;;;;5055902;28;20079;-86
2020/12/07 06:41:38;;;;;;;49.40;29.07;;;4.60;92.40;;;;;;5055661;28;20025;-86
2020/12/07 06:44:07;;;;;;;53.23;29.87;;;4.60;92.50;;;;;;5055609;28;20096;-86
2020/12/07 06:47:10;;;;;;;51.60;30.23;;;4.60;92.40;;;;;;5054246;28;20485;-86
2020/12/07 06:49:49;;;;;;;52.17;29.20;;;4.60;92.40;;;;;;5054025;28;20029;-87
2020/12/07 06:52:21;;;;;;;52.53;28.35;;;4.70;92.50;;;;;;5055510;28;20536;-86
2020/12/07 06:55:05;;;;;;;48.30;28.53;;;4.70;92.30;;;;;;5054196;28;20033;-86
2020/12/07 06:57:42;;;;;;;47.87;27.87;;;4.70;92.40;;;;;;5054315;28;20120;-85
2020/12/07 07:00:09;;;;;;;52.93;29.47;;;4.70;92.20;;;;;;5055266;28;20094;-86
2020/12/07 07:02:40;;;;;;;49.23;27.50;;;4.70;92.40;;;;;;5053965;28;20512;-85
2020/12/07 07:05:07;;;;;;;44.70;26.70;;;4.70;92.30;;;;;;5053904;28;20025;-86
2020/12/07 07:07:34;;;;;;;46.83;27.00;;;4.60;92.50;;;;;;5053784;28;20029;-85
2020/12/07 07:10:00;;;;;;;47.13;26.80;;;4.70;92.30;;;;;;5055002;28;20515;-86
2020/12/07 07:12:27;;;;;;;45.47;25.90;;;4.70;92.30;;;;;;5055165;28;20029;-86
2020/12/07 07:14:53;;;;;;;46.73;26.67;;;4.70;92.20;;;;;;5053833;28;20029;-87
2020/12/07 07:17:23;;;;;;;46.20;26.33;;;4.70;92.10;;;;;;5054800;28;20021;-86
2020/12/07 07:19:49;;;;;;;45.97;25.40;;;4.70;92.30;;;;;;5058555;28;20481;-86
2020/12/07 07:22:15;;;;;;;43.43;24.20;;;4.70;92.20;;;;;;5061593;28;20151;-86
2020/12/07 07:29:59;;;;;;;41.67;23.57;;;4.60;92.20;;;;;;5063095;28;20058;-89
2020/12/07 07:32:25;;;;;;;40.70;24.57;;;4.60;92.00;;;;;;5061717;28;20067;-88
2020/12/07 07:34:50;;;;;;;43.33;24.67;;;4.70;92.10;;;;;;5057771;28;20040;-90
2020/12/07 07:37:17;;;;;;;42.87;24.17;;;4.60;92.10;;;;;;5056198;28;20029;-86
2020/12/07 07:39:46;;;;;;;40.93;23.67;;;4.60;92.20;;;;;;5058420;28;20029;-86
2020/12/07 07:42:14;;;;;;;43.13;23.02;;;4.60;92.10;;;;;;5056758;28;20112;-86
2020/12/07 07:44:41;;;;;;;42.40;24.13;;;4.60;92.30;;;;;;5055166;28;20064;-86
2020/12/07 07:47:14;;;;;;;40.87;22.73;;;4.70;92.20;;;;;;5054840;28;20025;-86
2020/12/07 07:50:03;;;;;;;42.43;21.70;;;4.70;92.10;;;;;;5055354;28;20025;-86
2020/12/07 08:01:58;;;;;;;34.00;19.57;;;4.70;91.70;;;;;;5060356;28;20027;-88
2020/12/07 08:17:29;;;;;;;35.23;18.57;;;4.60;91.90;;;;;;5064079;28;20039;-86
2020/12/07 08:20:07;;;;;;;36.70;18.47;;;4.70;92.10;;;;;;5064099;28;20049;-86
2020/12/07 08:22:33;;;;;;;34.70;17.83;;;4.60;91.70;;;;;;5064172;28;20033;-86
2020/12/07 08:25:01;;;;;;;36.53;19.00;;;4.60;91.80;;;;;;5063626;28;20454;-86
2020/12/07 08:27:34;;;;;;;37.57;19.50;;;4.70;91.60;;;;;;5063954;28;20055;-87
2020/12/07 08:30:07;;;;;;;39.73;19.70;;;4.60;91.90;;;;;;5063644;28;20109;-89
2020/12/07 08:32:34;;;;;;;40.13;18.93;;;4.60;91.90;;;;;;5065859;28;20064;-87
2020/12/07 08:35:00;;;;;;;37.47;18.93;;;4.60;92.00;;;;;;5065333;28;20029;-86
2020/12/07 08:37:26;;;;;;;34.83;18.87;;;4.70;91.80;;;;;;5063542;28;20075;-86
2020/12/07 08:39:52;;;;;;;35.03;18.57;;;4.70;91.50;;;;;;5063643;28;20037;-86
2020/12/07 08:42:19;;;;;;;35.60;17.83;;;4.60;91.40;;;;;;5062829;28;20025;-88
2020/12/07 08:44:44;;;;;;;33.20;17.23;;;4.60;91.40;;;;;;5062720;28;20409;-86
2020/12/07 08:47:11;;;;;;;34.37;17.60;;;4.60;91.30;;;;;;5069429;28;20033;-86
2020/12/07 08:49:38;;;;;;;33.00;16.97;;;4.60;91.60;;;;;;5069094;28;20029;-86
2020/12/07 08:52:04;;;;;;;33.10;16.67;;;4.60;91.30;;;;;;5072586;28;20032;-86
2020/12/07 08:54:30;;;;;;;33.13;16.33;;;4.50;91.80;;;;;;5070741;28;20106;-85
2020/12/07 08:56:55;;;;;;;33.20;16.73;;;4.60;91.60;;;;;;5071855;28;20025;-87
2020/12/07 08:59:21;;;;;;;27.50;14.80;;;4.60;91.60;;;;;;5070760;28;20013;-87
2020/12/07 09:01:47;;;;;;;29.97;16.47;;;4.60;91.80;;;;;;5071310;28;20039;-87
2020/12/07 09:04:12;;;;;;;33.23;16.13;;;4.60;91.70;;;;;;5065264;28;20029;-87
2020/12/07 09:06:44;;;;;;;32.93;16.20;;;4.70;91.70;;;;;;5054687;28;20033;-87
2020/12/07 09:09:10;;;;;;;32.47;16.23;;;4.70;91.60;;;;;;5053322;28;20024;-88
2020/12/07 09:11:36;;;;;;;31.57;15.97;;;4.70;91.60;;;;;;5052008;28;20025;-87
2020/12/07 09:14:06;;;;;;;32.50;16.13;;;4.70;91.50;;;;;;5052165;28;20071;-87
2020/12/07 09:16:32;;;;;;;29.97;16.57;;;4.70;91.60;;;;;;5051704;28;20021;-87
2020/12/07 09:18:59;;;;;;;31.40;16.90;;;4.70;91.40;;;;;;5053372;28;20100;-87
2020/12/07 09:21:24;;;;;;;37.27;18.63;;;4.70;91.30;;;;;;5052590;28;20118;-87
2020/12/07 09:23:50;;;;;;;34.40;17.33;;;4.60;91.40;;;;;;5052088;28;20025;-87
2020/12/07 09:26:16;;;;;;;36.83;17.67;;;4.60;91.50;;;;;;5051575;28;20021;-88
2020/12/07 09:28:41;;;;;;;36.00;18.67;;;4.60;91.60;;;;;;5051654;28;20031;-87
2020/12/07 09:31:07;;;;;;;37.30;20.13;;;4.60;91.70;;;;;;5051259;28;20029;-87
2020/12/07 09:33:35;;;;;;;40.43;21.00;;;4.70;92.00;;;;;;5051725;28;20172;-87
2020/12/07 09:36:02;;;;;;;41.87;21.83;;;4.70;91.80;;;;;;5052587;28;20029;-87
2020/12/07 09:38:28;;;;;;;44.17;23.27;;;4.70;91.80;;;;;;5053529;28;20433;-87
2020/12/07 09:40:54;;;;;;;44.73;23.73;;;4.70;91.90;;;;;;5050706;28;20047;-88
2020/12/07 09:43:19;;;;;;;45.00;23.90;;;4.70;91.90;;;;;;5051248;28;20033;-86
2020/12/07 09:45:45;;;;;;;47.60;24.23;;;4.70;92.00;;;;;;5051242;28;20025;-86
2020/12/07 09:48:11;;;;;;;44.03;23.23;;;4.70;92.00;;;;;;5051078;28;20029;-85
2020/12/07 09:50:36;;;;;;;44.93;24.00;;;4.70;91.80;;;;;;5052618;28;20025;-86
2020/12/07 09:53:03;;;;;;;43.50;23.57;;;4.70;92.10;;;;;;5051173;28;20064;-87
2020/12/07 09:55:29;;;;;;;43.63;22.50;;;4.70;91.80;;;;;;5051327;28;20462;-88
2020/12/07 09:57:55;;;;;;;42.20;22.03;;;4.70;91.80;;;;;;5052624;28;20029;-88
2020/12/07 10:00:21;;;;;;;43.60;23.17;;;4.70;91.80;;;;;;5050832;28;20029;-88
2020/12/07 10:02:46;;;;;;;45.37;23.70;;;4.70;91.80;;;;;;5052649;28;20068;-87
2020/12/07 10:05:13;;;;;;;46.80;22.80;;;4.70;92.00;;;;;;5052091;28;20561;-87
2020/12/07 10:07:38;;;;;;;41.83;21.77;;;4.70;91.60;;;;;;5054578;28;20060;-87
2020/12/07 10:10:05;;;;;;;39.27;21.00;;;4.60;92.00;;;;;;5061824;28;20021;-87
2020/12/07 10:12:32;;;;;;;42.53;22.87;;;4.60;92.10;;;;;;5057518;28;20080;-87
2020/12/07 10:14:58;;;;;;;45.80;24.27;;;4.60;91.90;;;;;;5055084;28;20052;-88
2020/12/07 10:17:23;;;;;;;44.47;24.17;;;4.60;92.00;;;;;;5054908;28;20075;-88
2020/12/07 10:19:49;;;;;;;46.77;24.70;;;4.70;92.20;;;;;;5054748;28;20064;-88
2020/12/07 10:22:15;;;;;;;48.27;25.07;;;4.70;92.10;;;;;;5055993;28;20029;-88
2020/12/07 10:24:40;;;;;;;46.30;24.33;;;4.60;92.10;;;;;;5056565;28;20079;-87
2020/12/07 10:27:06;;;;;;;43.93;24.10;;;4.70;92.00;;;;;;5055997;28;20040;-88
2020/12/07 10:29:31;;;;;;;46.27;24.23;;;4.70;92.30;;;;;;5054104;28;20029;-88
2020/12/07 10:31:57;;;;;;;52.37;27.30;;;4.70;92.10;;;;;;5054194;28;20080;-88
2020/12/07 10:34:26;;;;;;;48.40;26.30;;;4.60;92.10;;;;;;5054702;28;20426;-87
2020/12/07 10:36:51;;;;;;;51.25;26.38;;;4.70;92.10;;;;;;5054990;28;20427;-86
2020/12/07 10:39:17;;;;;;;49.87;26.03;;;4.60;92.20;;;;;;5054542;28;20123;-86
2020/12/07 10:41:43;;;;;;;52.97;27.13;;;4.60;92.40;;;;;;5054390;28;20035;-88
2020/12/07 10:44:08;;;;;;;50.93;27.20;;;4.60;92.50;;;;;;5054189;28;20033;-86
2020/12/07 10:46:37;;;;;;;53.23;26.83;;;4.70;92.40;;;;;;5054394;28;20506;-86
2020/12/07 10:49:04;;;;;;;49.73;26.77;;;4.70;92.30;;;;;;5054447;28;20397;-86
2020/12/07 10:51:30;;;;;;;50.30;24.90;;;4.70;92.20;;;;;;5054359;28;20482;-86
2020/12/07 10:53:56;;;;;;;50.03;26.23;;;4.60;92.30;;;;;;5054107;28;20024;-86
2020/12/07 10:56:21;;;;;;;52.43;26.13;;;4.70;92.20;;;;;;5054030;28;20075;-86
2020/12/07 10:58:47;;;;;;;49.87;25.87;;;4.60;92.20;;;;;;5054246;28;20032;-86
2020/12/07 11:01:16;;;;;;;45.77;24.33;;;4.70;92.20;;;;;;5054021;28;20455;-86
2020/12/07 11:03:42;;;;;;;47.40;23.90;;;4.70;92.20;;;;;;5053989;28;20082;-86
2020/12/07 11:06:31;;;;;;;48.53;24.17;;;4.70;92.10;;;;;;5053918;28;20393;-87
2020/12/07 11:08:57;;;;;;;50.20;25.80;;;4.70;92.10;;;;;;5054895;28;20116;-85
2020/12/07 11:11:23;;;;;;;;;;;4.70;92.20;;;;;;5054487;28;20385;-86
2020/12/07 11:13:49;;;;;;;50.93;24.23;;;4.70;92.30;;;;;;5053961;28;19930;-86
2020/12/07 11:16:18;;;;;;;45.03;23.23;;;4.80;92.10;;;;;;5055256;28;20017;-86
2020/12/07 11:18:44;;;;;;;47.22;23.70;;;4.80;92.30;;;;;;5053792;28;20028;-86
2020/12/07 11:21:15;;;;;;;46.43;23.73;;;4.80;92.20;;;;;;5053488;28;20036;-86
2020/12/07 11:23:43;;;;;;;46.83;23.83;;;4.70;92.10;;;;;;5053345;28;20032;-86
2020/12/07 11:26:10;;;;;;;49.33;24.57;;;4.70;92.20;;;;;;5053637;28;20082;-86
2020/12/07 11:28:36;;;;;;;47.77;24.00;;;4.80;92.20;;;;;;5053560;28;20021;-85
2020/12/07 11:31:01;;;;;;;46.73;24.33;;;4.70;92.00;;;;;;5053814;28;20021;-86
2020/12/07 11:33:27;;;;;;;48.73;24.33;;;4.70;92.20;;;;;;5096597;22;20043;-82
2020/12/07 11:35:53;;;;;;;48.13;24.43;;;4.80;92.50;;;;;;5080652;28;20414;-82
2020/12/07 11:38:21;;;;;;;45.23;24.03;;;4.80;92.50;;;;;;5080615;28;20026;-82
2020/12/07 11:45:44;;;;;;;46.00;23.73;;;4.90;92.60;;;;;;5098645;28;20267;-82
2020/12/07 11:48:10;;;;;;;48.90;23.60;;;4.90;92.40;;;;;;5098603;28;20119;-82
2020/12/07 11:50:36;;;;;;;48.23;23.33;;;4.90;92.40;;;;;;5097675;28;20024;-82
2020/12/07 11:53:03;;;;;;;46.33;23.40;;;4.90;92.20;;;;;;5080337;28;20032;-82
2020/12/07 11:55:29;;;;;;;46.40;24.37;;;4.90;92.20;;;;;;5098650;28;20016;-82
2020/12/07 11:57:55;;;;;;;48.83;23.50;;;4.90;92.30;;;;;;5080279;28;20024;-82
2020/12/07 12:00:20;;;;;;;45.97;22.27;;;5.00;92.40;;;;;;5079920;28;20031;-81
2020/12/07 12:02:46;;;;;;;44.67;21.03;;;5.00;92.20;;;;;;5080149;28;20034;-82
2020/12/07 12:05:11;;;;;;;47.83;22.43;;;5.00;92.20;;;;;;5080523;28;20020;-82
2020/12/07 12:07:37;;;;;;;43.60;21.73;;;4.90;92.00;;;;;;5080063;28;20039;-81
2020/12/07 12:10:03;;;;;;;41.10;20.73;;;5.00;92.00;;;;;;5097240;28;20036;-82
2020/12/07 12:12:28;;;;;;;43.33;22.23;;;5.00;91.90;;;;;;5080074;28;20516;-82
2020/12/07 12:14:54;;;;;;;45.20;22.40;;;4.90;92.00;;;;;;5097958;28;20384;-82
2020/12/07 12:17:20;;;;;;;41.43;21.50;;;5.00;92.10;;;;;;5097918;28;20020;-82
2020/12/07 12:19:45;;;;;;;41.53;21.40;;;5.00;92.30;;;;;;5079467;28;20024;-82
2020/12/07 12:22:11;;;;;;;41.67;21.47;;;5.00;92.20;;;;;;5079631;28;20095;-82
2020/12/07 12:24:37;;;;;;;41.20;20.37;;;5.00;92.20;;;;;;5097721;28;20034;-82
2020/12/07 12:27:02;;;;;;;41.77;20.23;;;5.00;92.10;;;;;;5080087;28;20031;-82
2020/12/07 12:29:28;;;;;;;40.03;20.13;;;5.00;92.20;;;;;;5079321;28;20024;-82
2020/12/07 12:31:53;;;;;;;47.43;20.93;;;5.00;92.20;;;;;;5096831;28;20028;-82
2020/12/07 12:34:19;;;;;;;45.10;22.60;;;5.00;91.90;;;;;;5097235;28;20111;-82
2020/12/07 12:36:47;;;;;;;42.03;20.20;;;4.90;92.20;;;;;;5098729;28;20016;-82
2020/12/07 12:39:13;;;;;;;43.53;20.50;;;4.90;92.50;;;;;;5096821;28;20040;-82
2020/12/07 12:41:39;;;;;;;43.97;20.20;;;4.90;92.40;;;;;;5097680;28;20051;-82
2020/12/07 12:44:08;;;;;;;39.90;19.23;;;4.90;92.10;;;;;;5097249;28;20024;-82
2020/12/07 12:46:35;;;;;;;43.80;20.80;;;4.90;92.30;;;;;;5078521;28;20032;-82
2020/12/07 12:49:00;;;;;;;35.97;18.97;;;4.90;92.20;;;;;;5095139;28;20028;-82
2020/12/07 12:51:26;;;;;;;41.73;20.23;;;4.90;92.20;;;;;;5095680;28;20510;-82
2020/12/07 12:53:51;;;;;;;40.47;19.90;;;4.90;92.10;;;;;;5077676;28;20028;-82
2020/12/07 12:56:17;;;;;;;41.57;21.13;;;5.00;92.30;;;;;;5077619;28;20024;-82
2020/12/07 12:58:43;;;;;;;42.83;20.83;;;4.90;92.10;;;;;;5095303;28;20035;-83
2020/12/07 13:01:08;;;;;;;38.10;19.33;;;4.90;92.20;;;;;;5094633;28;20032;-82
2020/12/07 13:03:34;;;;;;;43.63;20.80;;;5.00;92.30;;;;;;5078180;28;20047;-83
2020/12/07 13:06:00;;;;;;;38.03;19.37;;;5.00;92.10;;;;;;5077125;28;20024;-83
2020/12/07 13:08:26;;;;;;;42.77;20.53;;;4.90;91.80;;;;;;5076975;28;20039;-82
2020/12/07 13:10:52;;;;;;;40.10;19.27;;;4.90;91.80;;;;;;5094521;28;20047;-83
2020/12/07 13:13:18;;;;;;;41.43;20.57;;;4.90;91.80;;;;;;5095290;28;20020;-82